createdAt,value
2022-08-20T00:01:06.050Z,22.33
2022-08-20T00:03:37.073Z,22.34
2022-08-20T00:06:05.781Z,22.36
2022-08-20T00:11:00.344Z,22.38
2022-08-20T00:13:31.925Z,22.40
2022-08-20T00:15:59.529Z,22.41
2022-08-20T00:18:25.971Z,22.42
2022-08-20T00:20:55.597Z,22.42
2022-08-20T00:23:22.922Z,22.43
2022-08-20T00:25:50.040Z,22.45
2022-08-20T00:28:16.697Z,22.43
2022-08-20T00:30:45.155Z,22.45
2022-08-20T00:33:16.731Z,22.45
2022-08-20T00:35:48.350Z,22.46
2022-08-20T00:38:15.078Z,22.48
2022-08-20T00:40:45.576Z,22.47
2022-08-20T00:43:46.003Z,22.48
2022-08-20T00:46:22.042Z,22.50
2022-08-20T00:48:58.592Z,22.52
2022-08-20T00:51:57.583Z,22.50
2022-08-20T00:54:28.566Z,22.53
2022-08-20T00:57:05.499Z,22.51
2022-08-20T00:59:34.680Z,22.52
2022-08-20T01:02:01.954Z,22.52
2022-08-20T01:04:31.391Z,22.52
2022-08-20T01:06:57.795Z,22.52
2022-08-20T01:09:50.286Z,22.52
2022-08-20T01:12:11.705Z,22.53
2022-08-20T01:14:45.785Z,22.52
2022-08-20T01:17:19.612Z,22.51
2022-08-20T01:19:55.281Z,22.50
2022-08-20T01:22:58.361Z,22.51
2022-08-20T01:25:50.270Z,22.50
2022-08-20T01:28:24.443Z,22.49
2022-08-20T01:30:51.681Z,22.48
2022-08-20T01:33:20.345Z,22.47
2022-08-20T01:35:47.348Z,22.43
2022-08-20T01:38:14.110Z,22.43
2022-08-20T01:40:40.570Z,22.41
2022-08-20T01:43:08.880Z,22.39
2022-08-20T01:48:06.735Z,22.33
2022-08-20T01:50:35.913Z,22.28
2022-08-20T01:53:18.650Z,22.25
2022-08-20T01:55:45.165Z,22.27
2022-08-20T01:58:11.681Z,22.27
2022-08-20T02:00:38.210Z,22.28
2022-08-20T02:03:05.078Z,22.28
2022-08-20T02:05:33.313Z,22.29
2022-08-20T02:08:00.413Z,22.31
2022-08-20T02:10:27.695Z,22.32
2022-08-20T02:12:59.608Z,22.33
2022-08-20T02:15:34.727Z,22.33
2022-08-20T02:18:10.489Z,22.32
2022-08-20T02:20:37.763Z,22.33
2022-08-20T02:23:06.036Z,22.32
2022-08-20T02:25:35.506Z,22.31
2022-08-20T02:28:05.866Z,22.30
2022-08-20T02:30:40.986Z,22.30
2022-08-20T02:33:10.275Z,22.28
2022-08-20T02:35:39.061Z,22.31
2022-08-20T02:38:05.627Z,22.30
2022-08-20T02:40:32.422Z,22.30
2022-08-20T02:43:00.552Z,22.28
2022-08-20T02:45:28.375Z,22.28
2022-08-20T02:47:56.905Z,22.27
2022-08-20T02:50:25.768Z,22.25
2022-08-20T02:52:53.868Z,22.24
2022-08-20T02:55:27.317Z,22.22
2022-08-20T02:58:00.063Z,22.20
2022-08-20T03:00:37.700Z,22.18
2022-08-20T03:03:06.918Z,22.17
2022-08-20T03:05:35.131Z,22.14
2022-08-20T03:08:03.920Z,22.13
2022-08-20T03:10:34.029Z,22.11
2022-08-20T03:13:02.515Z,22.11
2022-08-20T03:15:30.868Z,22.10
2022-08-20T03:17:57.648Z,22.10
2022-08-20T03:20:25.268Z,22.11
2022-08-20T03:22:52.141Z,22.11
2022-08-20T03:25:18.671Z,22.10
2022-08-20T03:27:45.829Z,22.11
2022-08-20T03:30:14.378Z,22.10
2022-08-20T03:32:41.523Z,22.10
2022-08-20T03:35:11.034Z,22.09
2022-08-20T03:37:38.454Z,22.09
2022-08-20T03:40:15.581Z,22.08
2022-08-20T03:42:43.204Z,22.10
2022-08-20T03:45:13.040Z,22.10
2022-08-20T03:47:42.478Z,22.11
2022-08-20T03:50:10.342Z,22.10
2022-08-20T03:52:49.554Z,22.12
2022-08-20T03:55:16.063Z,22.12
2022-08-20T03:57:49.363Z,22.11
2022-08-20T04:00:21.934Z,22.07
2022-08-20T04:02:48.915Z,22.11
2022-08-20T04:05:15.512Z,22.10
2022-08-20T04:07:42.802Z,22.13
2022-08-20T04:10:10.977Z,22.15
2022-08-20T04:12:40.730Z,22.19
2022-08-20T04:15:17.500Z,22.22
2022-08-20T04:17:48.422Z,22.24
2022-08-20T04:20:19.082Z,22.25
2022-08-20T04:22:50.817Z,22.29
2022-08-20T04:25:29.521Z,22.29
2022-08-20T04:28:00.427Z,22.30
2022-08-20T04:30:27.961Z,22.32
2022-08-20T04:32:55.283Z,22.33
2022-08-20T04:35:24.487Z,22.31
2022-08-20T04:37:58.825Z,22.30
2022-08-20T04:40:43.980Z,22.34
2022-08-20T04:43:10.506Z,22.39
2022-08-20T04:45:39.943Z,22.41
2022-08-20T04:48:10.560Z,22.33
2022-08-20T04:50:43.651Z,22.35
2022-08-20T04:55:42.846Z,22.40
2022-08-20T04:58:16.695Z,22.47
2022-08-20T05:00:45.912Z,22.53
2022-08-20T05:03:12.464Z,22.57
2022-08-20T05:05:39.376Z,22.60
2022-08-20T05:08:06.199Z,22.62
2022-08-20T05:10:47.014Z,22.65
2022-08-20T05:13:13.551Z,22.67
2022-08-20T05:15:39.981Z,22.69
2022-08-20T05:18:08.637Z,22.69
2022-08-20T05:20:40.958Z,22.70
2022-08-20T05:23:10.192Z,22.74
2022-08-20T05:25:38.123Z,22.73
2022-08-20T05:28:12.588Z,22.76
2022-08-20T05:30:44.506Z,22.80
2022-08-20T05:33:16.782Z,22.80
2022-08-20T05:35:43.395Z,22.83
2022-08-20T05:38:12.969Z,22.88
2022-08-20T05:40:40.880Z,22.92
2022-08-20T05:43:08.394Z,22.96
2022-08-20T05:45:39.551Z,22.95
2022-08-20T05:48:16.097Z,22.95
2022-08-20T05:50:44.818Z,23.04
2022-08-20T05:53:11.900Z,23.09
2022-08-20T05:55:39.729Z,23.09
2022-08-20T05:58:14.012Z,23.15
2022-08-20T06:00:40.478Z,23.12
2022-08-20T06:03:25.437Z,23.11
2022-08-20T06:05:51.964Z,23.14
2022-08-20T06:08:18.587Z,23.11
2022-08-20T06:10:45.256Z,23.18
2022-08-20T06:13:14.037Z,23.24
2022-08-20T06:15:41.211Z,23.29
2022-08-20T06:18:27.499Z,23.32
2022-08-20T06:20:56.763Z,23.38
2022-08-20T06:23:25.189Z,23.40
2022-08-20T06:25:52.465Z,23.41
2022-08-20T06:28:18.962Z,23.41
2022-08-20T06:30:45.450Z,23.35
2022-08-20T06:33:12.139Z,23.32
2022-08-20T06:35:38.661Z,23.30
2022-08-20T06:38:05.822Z,23.32
2022-08-20T06:40:34.024Z,23.36
2022-08-20T06:43:01.146Z,23.39
2022-08-20T06:45:31.789Z,23.36
2022-08-20T06:48:01.670Z,23.40
2022-08-20T06:50:43.184Z,23.45
2022-08-20T06:53:18.291Z,23.50
2022-08-20T06:55:54.782Z,23.52
2022-08-20T06:58:36.686Z,23.63
2022-08-20T07:01:10.394Z,23.78
2022-08-20T07:03:42.143Z,23.88
2022-08-20T07:06:22.090Z,24.01
2022-08-20T07:08:48.556Z,24.05
2022-08-20T07:11:15.195Z,24.13
2022-08-20T07:13:41.932Z,24.20
2022-08-20T07:16:08.941Z,24.32
2022-08-20T07:18:36.328Z,24.44
2022-08-20T07:21:03.341Z,24.49
2022-08-20T07:23:31.455Z,24.60
2022-08-20T07:25:58.399Z,24.73
2022-08-20T07:28:28.737Z,24.86
2022-08-20T07:31:15.945Z,24.97
2022-08-20T07:33:44.288Z,25.13
2022-08-20T07:36:12.213Z,25.19
2022-08-20T07:38:38.644Z,25.25
2022-08-20T07:41:09.879Z,25.32
2022-08-20T07:43:36.494Z,25.41
2022-08-20T07:46:08.737Z,25.47
2022-08-20T07:48:39.703Z,25.57
2022-08-20T07:51:07.694Z,25.69
2022-08-20T07:53:36.675Z,25.74
2022-08-20T07:56:10.038Z,25.75
2022-08-20T07:58:41.547Z,25.73
2022-08-20T08:01:08.211Z,25.73
2022-08-20T08:03:39.907Z,25.67
2022-08-20T08:06:29.310Z,25.65
2022-08-20T08:09:01.756Z,25.59
2022-08-20T08:11:28.373Z,25.56
2022-08-20T08:13:54.742Z,25.55
2022-08-20T08:16:21.876Z,25.48
2022-08-20T08:18:52.098Z,25.38
2022-08-20T08:21:18.968Z,25.44
2022-08-20T08:23:45.702Z,25.56
2022-08-20T08:26:15.898Z,25.71
2022-08-20T08:28:45.851Z,25.79
2022-08-20T08:31:13.079Z,25.82
2022-08-20T08:33:40.752Z,25.85
2022-08-20T08:36:13.107Z,25.94
2022-08-20T08:38:42.856Z,26.05
2022-08-20T08:41:26.477Z,26.04
2022-08-20T08:43:59.631Z,26.03
2022-08-20T08:46:27.699Z,25.97
2022-08-20T08:48:57.653Z,25.96
2022-08-20T08:51:39.577Z,25.98
2022-08-20T08:54:08.457Z,26.13
2022-08-20T08:56:35.777Z,26.36
2022-08-20T08:59:07.642Z,26.52
2022-08-20T09:01:55.614Z,26.79
2022-08-20T09:04:32.565Z,26.90
2022-08-20T09:07:01.210Z,26.98
2022-08-20T09:09:38.556Z,27.10
2022-08-20T09:12:08.692Z,27.30
2022-08-20T09:14:35.845Z,27.49
2022-08-20T09:17:03.071Z,27.64
2022-08-20T09:19:29.912Z,27.76
2022-08-20T09:21:56.548Z,27.86
2022-08-20T09:24:23.060Z,27.85
2022-08-20T09:26:49.510Z,27.85
2022-08-20T09:29:16.251Z,27.84
2022-08-20T09:31:43.527Z,27.89
2022-08-20T09:34:11.588Z,27.97
2022-08-20T09:36:38.051Z,27.98
2022-08-20T09:39:04.651Z,27.99
2022-08-20T09:41:34.310Z,27.94
2022-08-20T09:44:01.579Z,27.85
2022-08-20T09:46:28.096Z,27.65
2022-08-20T09:48:54.974Z,27.45
2022-08-20T09:51:22.534Z,27.35
2022-08-20T09:53:49.356Z,27.39
2022-08-20T09:56:16.899Z,27.57
2022-08-20T09:58:48.867Z,27.85
2022-08-20T10:01:18.424Z,28.03
2022-08-20T10:03:48.630Z,28.15
2022-08-20T10:06:17.847Z,28.39
2022-08-20T10:08:44.432Z,28.60
2022-08-20T10:11:11.724Z,28.80
2022-08-20T10:13:38.132Z,29.00
2022-08-20T10:16:04.991Z,29.08
2022-08-20T10:18:31.530Z,29.06
2022-08-20T10:20:58.007Z,29.11
2022-08-20T10:23:24.369Z,29.24
2022-08-20T10:25:50.868Z,29.36
2022-08-20T10:28:17.302Z,29.41
2022-08-20T10:30:45.071Z,29.58
2022-08-20T10:33:11.492Z,29.75
2022-08-20T10:35:38.390Z,30.20
2022-08-20T10:38:04.779Z,30.84
2022-08-20T10:40:31.227Z,31.10
2022-08-20T10:42:57.785Z,31.38
2022-08-20T10:45:25.699Z,31.93
2022-08-20T10:47:52.287Z,32.05
2022-08-20T10:50:19.915Z,32.12
2022-08-20T10:52:47.062Z,33.34
2022-08-20T10:55:13.632Z,34.46
2022-08-20T10:57:41.593Z,35.18
2022-08-20T11:00:12.957Z,34.52
2022-08-20T11:02:39.473Z,33.28
2022-08-20T11:05:07.796Z,32.33
2022-08-20T11:07:55.129Z,31.54
2022-08-20T11:10:27.035Z,31.08
2022-08-20T11:12:53.599Z,30.73
2022-08-20T11:15:20.089Z,30.33
2022-08-20T11:17:46.925Z,30.02
2022-08-20T11:20:16.307Z,29.72
2022-08-20T11:22:42.815Z,29.47
2022-08-20T11:25:09.617Z,29.42
2022-08-20T11:27:39.735Z,29.46
2022-08-20T11:30:09.968Z,29.44
2022-08-20T11:32:36.799Z,29.37
2022-08-20T11:35:18.795Z,29.30
2022-08-20T11:37:54.020Z,29.29
2022-08-20T11:40:21.338Z,29.45
2022-08-20T11:43:12.591Z,29.86
2022-08-20T11:45:37.368Z,30.26
2022-08-20T11:48:05.089Z,30.34
2022-08-20T11:50:32.075Z,30.53
2022-08-20T11:52:58.735Z,30.66
2022-08-20T11:55:30.056Z,30.90
2022-08-20T11:58:00.179Z,31.57
2022-08-20T12:00:33.206Z,33.37
2022-08-20T12:03:05.272Z,35.51
2022-08-20T12:05:32.688Z,36.69
2022-08-20T12:08:02.440Z,36.65
2022-08-20T12:10:30.184Z,37.26
2022-08-20T12:12:57.486Z,37.74
2022-08-20T12:15:26.680Z,37.72
2022-08-20T12:17:53.520Z,38.43
2022-08-20T12:20:20.192Z,38.46
2022-08-20T12:22:46.787Z,38.13
2022-08-20T12:25:13.646Z,39.42
2022-08-20T12:27:41.760Z,41.05
2022-08-20T12:30:12.045Z,42.21
2022-08-20T12:32:38.612Z,42.82
2022-08-20T12:35:06.736Z,43.54
2022-08-20T12:37:33.588Z,44.63
2022-08-20T12:40:01.849Z,45.58
2022-08-20T12:42:31.751Z,45.96
2022-08-20T12:44:59.418Z,45.72
2022-08-20T12:47:32.155Z,45.34
2022-08-20T12:50:10.028Z,45.00
2022-08-20T12:52:37.112Z,44.37
2022-08-20T12:55:04.659Z,43.60
2022-08-20T12:57:39.638Z,43.02
2022-08-20T13:00:16.915Z,43.26
2022-08-20T13:02:45.036Z,43.69
2022-08-20T13:05:13.252Z,44.06
2022-08-20T13:07:41.124Z,44.47
2022-08-20T13:10:11.813Z,44.54
2022-08-20T13:12:38.254Z,44.32
2022-08-20T13:15:05.179Z,44.53
2022-08-20T13:17:38.005Z,45.14
2022-08-20T13:20:07.845Z,45.19
2022-08-20T13:22:35.443Z,45.05
2022-08-20T13:25:02.008Z,45.16
2022-08-20T13:27:28.631Z,45.00
2022-08-20T13:29:58.741Z,44.39
2022-08-20T13:32:26.180Z,43.09
2022-08-20T13:34:52.577Z,42.39
2022-08-20T13:37:25.369Z,41.41
2022-08-20T13:39:56.363Z,40.13
2022-08-20T13:42:23.397Z,38.71
2022-08-20T13:44:49.947Z,37.63
2022-08-20T13:47:25.654Z,36.89
2022-08-20T13:49:58.290Z,36.17
2022-08-20T13:52:25.460Z,35.55
2022-08-20T13:54:52.410Z,35.22
2022-08-20T13:57:20.560Z,34.93
2022-08-20T13:59:49.528Z,34.61
2022-08-20T14:02:17.397Z,34.34
2022-08-20T14:04:43.961Z,34.05
2022-08-20T14:07:19.968Z,33.49
2022-08-20T14:09:53.868Z,32.89
2022-08-20T14:12:23.154Z,32.61
2022-08-20T14:14:51.196Z,32.31
2022-08-20T14:17:19.651Z,31.86
2022-08-20T14:19:48.511Z,31.59
2022-08-20T14:22:18.035Z,31.35
2022-08-20T14:24:47.272Z,31.11
2022-08-20T14:27:15.726Z,30.91
2022-08-20T14:29:44.522Z,30.85
2022-08-20T14:32:11.498Z,30.63
2022-08-20T14:34:38.909Z,30.43
2022-08-20T14:37:15.907Z,30.37
2022-08-20T14:39:44.886Z,30.37
2022-08-20T14:42:11.773Z,30.38
2022-08-20T14:44:38.389Z,30.26
2022-08-20T14:47:23.827Z,30.17
2022-08-20T14:49:52.642Z,30.09
2022-08-20T14:52:20.732Z,30.03
2022-08-20T14:54:48.078Z,29.98
2022-08-20T14:57:16.874Z,29.93
2022-08-20T14:59:44.167Z,29.83
2022-08-20T15:02:12.825Z,29.72
2022-08-20T15:04:40.867Z,29.52
2022-08-20T15:07:14.702Z,29.41
2022-08-20T15:09:43.851Z,29.32
2022-08-20T15:12:10.334Z,29.32
2022-08-20T15:14:39.281Z,29.30
2022-08-20T15:17:06.166Z,29.32
2022-08-20T15:19:32.910Z,29.28
2022-08-20T15:21:59.345Z,29.14
2022-08-20T15:24:25.863Z,28.86
2022-08-20T15:26:52.328Z,28.62
2022-08-20T15:29:23.136Z,28.42
2022-08-20T15:31:50.293Z,28.13
2022-08-20T15:34:18.059Z,27.89
2022-08-20T15:36:45.347Z,27.78
2022-08-20T15:39:11.835Z,27.68
2022-08-20T15:41:38.305Z,27.61
2022-08-20T15:44:04.946Z,27.51
2022-08-20T15:46:36.271Z,27.46
2022-08-20T15:49:11.416Z,27.36
2022-08-20T15:51:47.297Z,27.23
2022-08-20T15:54:19.125Z,27.18
2022-08-20T15:57:07.572Z,27.11
2022-08-20T16:00:11.479Z,26.96
2022-08-20T16:03:11.706Z,26.91
2022-08-20T16:05:59.479Z,26.88
2022-08-20T16:08:47.782Z,26.73
2022-08-20T16:11:29.390Z,26.63
2022-08-20T16:14:08.803Z,26.55
2022-08-20T16:16:42.546Z,26.45
2022-08-20T16:19:14.934Z,26.45
2022-08-20T16:21:44.575Z,26.44
2022-08-20T16:24:13.869Z,26.44
2022-08-20T16:26:43.639Z,26.41
2022-08-20T16:29:12.033Z,26.35
2022-08-20T16:32:00.460Z,26.25
2022-08-20T16:34:40.399Z,26.31
2022-08-20T16:37:25.281Z,26.31
2022-08-20T16:40:00.030Z,26.32
2022-08-20T16:42:33.270Z,26.19
2022-08-20T16:45:00.336Z,26.13
2022-08-20T16:47:30.760Z,26.08
2022-08-20T16:50:11.939Z,26.06
2022-08-20T16:52:43.489Z,26.05
2022-08-20T16:55:10.803Z,25.98
2022-08-20T16:57:37.447Z,25.97
2022-08-20T17:00:22.156Z,25.88
2022-08-20T17:02:57.926Z,25.84
2022-08-20T17:05:29.190Z,25.84
2022-08-20T17:08:02.181Z,25.84
2022-08-20T17:10:33.085Z,25.87
2022-08-20T17:13:05.072Z,25.86
2022-08-20T17:15:35.491Z,25.78
2022-08-20T17:18:24.463Z,25.75
2022-08-20T17:20:51.687Z,25.77
2022-08-20T17:23:20.632Z,25.72
2022-08-20T17:26:00.227Z,25.69
2022-08-20T17:28:29.831Z,25.63
2022-08-20T17:30:58.554Z,25.59
2022-08-20T17:33:30.263Z,25.57
2022-08-20T17:36:21.302Z,25.45
2022-08-20T17:38:51.703Z,25.43
2022-08-20T17:41:23.163Z,25.37
2022-08-20T17:44:07.901Z,25.37
2022-08-20T17:46:41.526Z,25.42
2022-08-20T17:49:12.641Z,25.42
2022-08-20T17:51:52.950Z,25.38
2022-08-20T17:54:25.741Z,25.38
2022-08-20T17:56:57.879Z,25.33
2022-08-20T17:59:59.822Z,25.28
2022-08-20T18:02:16.760Z,25.24
2022-08-20T18:04:44.644Z,25.19
2022-08-20T18:07:11.018Z,25.14
2022-08-20T18:09:55.193Z,25.09
2022-08-20T18:12:49.725Z,25.08
2022-08-20T18:15:29.674Z,25.06
2022-08-20T18:18:17.759Z,25.01
2022-08-20T18:21:10.820Z,25.02
2022-08-20T18:23:42.926Z,24.99
2022-08-20T18:26:31.820Z,24.96
2022-08-20T18:29:03.776Z,24.94
2022-08-20T18:31:33.997Z,24.92
2022-08-20T18:34:14.732Z,24.85
2022-08-20T18:36:41.513Z,24.76
2022-08-20T18:39:23.203Z,24.67
2022-08-20T18:42:01.985Z,24.59
2022-08-20T18:44:37.553Z,24.54
2022-08-20T18:47:06.032Z,24.53
2022-08-20T18:49:37.372Z,24.52
2022-08-20T18:52:11.209Z,24.50
2022-08-20T18:54:40.880Z,24.48
2022-08-20T18:57:19.060Z,24.45
2022-08-20T18:59:53.687Z,24.42
2022-08-20T19:02:25.661Z,24.35
2022-08-20T19:05:02.320Z,24.29
2022-08-20T19:07:47.953Z,24.23
2022-08-20T19:11:05.800Z,24.16
2022-08-20T19:13:48.296Z,24.10
2022-08-20T19:16:40.328Z,24.04
2022-08-20T19:19:18.764Z,24.02
2022-08-20T19:21:45.395Z,23.99
2022-08-20T19:24:17.964Z,23.92
2022-08-20T19:26:49.847Z,23.88
2022-08-20T19:29:22.813Z,23.86
2022-08-20T19:31:49.249Z,23.84
2022-08-20T19:34:25.551Z,23.80
2022-08-20T19:36:58.698Z,23.79
2022-08-20T19:39:30.300Z,23.76
2022-08-20T19:42:03.883Z,23.72
2022-08-20T19:44:41.439Z,23.67
2022-08-20T19:47:20.391Z,23.64
2022-08-20T19:50:04.811Z,23.58
2022-08-20T19:52:51.661Z,23.54
2022-08-20T19:55:38.869Z,23.49
2022-08-20T19:58:11.044Z,23.49
2022-08-20T20:00:48.533Z,23.44
2022-08-20T20:03:22.880Z,23.41
2022-08-20T20:05:58.427Z,23.36
2022-08-20T20:08:30.368Z,23.30
2022-08-20T20:10:59.831Z,23.24
2022-08-20T20:13:27.747Z,23.21
2022-08-20T20:16:02.707Z,23.17
2022-08-20T20:18:34.024Z,23.14
2022-08-20T20:21:20.471Z,23.09
2022-08-20T20:23:54.000Z,23.07
2022-08-20T20:26:21.026Z,23.01
2022-08-20T20:28:51.097Z,22.96
2022-08-20T20:31:24.144Z,22.93
2022-08-20T20:33:56.488Z,22.89
2022-08-20T20:36:40.287Z,22.83
2022-08-20T20:39:14.296Z,22.82
2022-08-20T20:41:53.015Z,22.76
2022-08-20T20:44:28.560Z,22.75
2022-08-20T20:47:00.224Z,22.72
2022-08-20T20:49:28.305Z,22.68
2022-08-20T20:52:01.348Z,22.62
2022-08-20T20:54:29.687Z,22.58
2022-08-20T20:57:05.718Z,22.53
2022-08-20T20:59:35.249Z,22.50
2022-08-20T21:02:02.875Z,22.48
2022-08-20T21:04:29.433Z,22.43
2022-08-20T21:06:58.807Z,22.39
2022-08-20T21:11:52.625Z,22.32
2022-08-20T21:14:19.139Z,22.31
2022-08-20T21:16:45.795Z,22.27
2022-08-20T21:19:13.419Z,22.24
2022-08-20T21:21:40.521Z,22.22
2022-08-20T21:24:07.843Z,22.18
2022-08-20T21:26:34.814Z,22.15
2022-08-20T21:29:01.366Z,22.11
2022-08-20T21:31:33.721Z,22.07
2022-08-20T21:34:00.420Z,22.05
2022-08-20T21:36:27.318Z,22.02
2022-08-20T21:38:53.795Z,21.99
2022-08-20T21:41:29.590Z,21.96
2022-08-20T21:43:58.780Z,21.96
2022-08-20T21:46:25.972Z,21.92
2022-08-20T21:48:52.404Z,21.88
2022-08-20T21:51:19.028Z,21.85
2022-08-20T21:53:45.476Z,21.83
2022-08-20T21:56:12.201Z,21.79
2022-08-20T21:58:39.546Z,21.74
2022-08-20T22:01:11.259Z,21.70
2022-08-20T22:03:40.958Z,21.67
2022-08-20T22:06:10.152Z,21.63
2022-08-20T22:08:36.570Z,21.59
2022-08-20T22:11:04.117Z,21.56
2022-08-20T22:13:33.629Z,21.53
2022-08-20T22:16:06.454Z,21.50
2022-08-20T22:18:33.839Z,21.48
2022-08-20T22:21:00.500Z,21.46
2022-08-20T22:23:27.318Z,21.43
2022-08-20T22:25:54.064Z,21.39
2022-08-20T22:28:21.429Z,21.37
2022-08-20T22:30:47.835Z,21.34
2022-08-20T22:33:19.112Z,21.31
2022-08-20T22:35:49.750Z,21.29
2022-08-20T22:38:17.104Z,21.28
2022-08-20T22:40:44.223Z,21.27
2022-08-20T22:43:11.198Z,21.23
2022-08-20T22:45:39.102Z,21.19
2022-08-20T22:48:06.774Z,21.14
2022-08-20T22:50:33.186Z,21.11
2022-08-20T22:53:01.349Z,21.08
2022-08-20T22:55:27.858Z,21.06
2022-08-20T22:57:54.923Z,21.03
2022-08-20T23:00:24.150Z,21.01
2022-08-20T23:02:55.040Z,20.98
2022-08-20T23:05:23.655Z,20.95
2022-08-20T23:07:53.974Z,20.94
2022-08-20T23:10:21.302Z,20.91
2022-08-20T23:12:48.073Z,20.88
2022-08-20T23:15:14.614Z,20.85
2022-08-20T23:17:41.442Z,20.84
2022-08-20T23:20:11.252Z,20.82
2022-08-20T23:22:37.811Z,20.80
2022-08-20T23:25:06.226Z,20.78
2022-08-20T23:27:39.473Z,20.75
2022-08-20T23:30:06.805Z,20.74
2022-08-20T23:32:33.231Z,20.71
2022-08-20T23:34:59.708Z,20.67
2022-08-20T23:37:26.246Z,20.65
2022-08-20T23:39:52.732Z,20.60
2022-08-20T23:42:19.195Z,20.58
2022-08-20T23:44:45.641Z,20.55
2022-08-20T23:47:18.031Z,20.54
2022-08-20T23:49:45.279Z,20.53
2022-08-20T23:52:11.803Z,20.51
2022-08-20T23:54:38.373Z,20.48
2022-08-20T23:57:08.166Z,20.45
2022-08-20T23:59:35.188Z,20.43
